createdAt,value
2024-02-29T00:00:32.923Z,17.75
2024-02-29T00:03:01.016Z,17.88
2024-02-29T00:05:28.944Z,16.83
2024-02-29T00:07:57.210Z,18.92
2024-02-29T00:10:27.157Z,16.48
2024-02-29T00:12:55.055Z,20.50
2024-02-29T00:15:25.427Z,21.70
2024-02-29T00:17:53.619Z,18.13
2024-02-29T00:20:21.939Z,18.27
2024-02-29T00:22:49.854Z,17.65
2024-02-29T00:25:18.206Z,18.88
2024-02-29T00:27:49.379Z,19.63
2024-02-29T00:30:21.206Z,17.80
2024-02-29T00:32:55.968Z,19.42
2024-02-29T00:35:33.429Z,20.90
2024-02-29T00:38:04.165Z,24.30
2024-02-29T00:40:34.187Z,22.77
2024-02-29T00:43:03.671Z,19.43
2024-02-29T00:45:35.875Z,18.95
2024-02-29T00:48:04.933Z,21.58
2024-02-29T00:50:35.039Z,23.55
2024-02-29T00:53:03.101Z,21.25
2024-02-29T00:55:31.544Z,21.37
2024-02-29T00:58:00.052Z,19.88
2024-02-29T01:00:29.998Z,19.52
2024-02-29T01:02:58.167Z,20.35
2024-02-29T01:05:26.848Z,17.95
2024-02-29T01:07:58.939Z,21.23
2024-02-29T01:10:27.694Z,22.13
2024-02-29T01:12:57.919Z,25.02
2024-02-29T01:15:26.375Z,24.88
2024-02-29T01:17:56.119Z,22.58
2024-02-29T01:20:24.716Z,28.70
2024-02-29T01:22:53.363Z,25.77
2024-02-29T01:25:21.447Z,27.27
2024-02-29T01:27:49.378Z,28.02
2024-02-29T01:30:17.896Z,28.38
2024-02-29T01:32:45.782Z,28.30
2024-02-29T01:35:15.574Z,33.25
2024-02-29T01:37:44.049Z,29.98
2024-02-29T01:40:12.967Z,30.70
2024-02-29T01:42:42.790Z,33.45
2024-02-29T01:45:11.168Z,32.70
2024-02-29T01:47:40.153Z,32.08
2024-02-29T01:50:10.390Z,29.63
2024-02-29T01:52:40.991Z,29.75
2024-02-29T01:55:09.574Z,30.55
2024-02-29T01:57:38.984Z,31.13
2024-02-29T02:00:10.273Z,26.60
2024-02-29T02:02:40.120Z,30.98
2024-02-29T02:05:09.023Z,30.23
2024-02-29T02:07:37.491Z,31.52
2024-02-29T02:10:09.310Z,32.37
2024-02-29T02:12:37.838Z,33.38
2024-02-29T02:15:06.431Z,32.50
2024-02-29T02:17:34.884Z,33.97
2024-02-29T02:20:02.918Z,33.53
2024-02-29T02:22:32.774Z,31.30
2024-02-29T02:25:00.679Z,32.78
2024-02-29T02:27:29.363Z,32.92
2024-02-29T02:30:02.156Z,38.10
2024-02-29T02:32:30.565Z,32.47
2024-02-29T02:34:58.497Z,32.97
2024-02-29T02:37:26.783Z,38.53
2024-02-29T02:39:56.155Z,35.90
2024-02-29T02:42:27.086Z,32.95
2024-02-29T02:44:55.041Z,32.35
2024-02-29T02:47:23.064Z,32.50
2024-02-29T02:49:51.392Z,31.70
2024-02-29T02:52:19.480Z,31.40
2024-02-29T02:54:47.421Z,34.33
2024-02-29T02:57:16.927Z,31.33
2024-02-29T02:59:45.675Z,36.30
2024-02-29T03:02:14.025Z,31.15
2024-02-29T03:04:41.975Z,31.10
2024-02-29T03:07:09.943Z,33.67
2024-02-29T03:09:39.007Z,31.92
2024-02-29T03:12:08.306Z,34.80
2024-02-29T03:14:37.726Z,32.95
2024-02-29T03:17:05.607Z,32.58
2024-02-29T03:19:33.940Z,28.55
2024-02-29T03:22:02.351Z,36.53
2024-02-29T03:24:30.635Z,36.00
2024-02-29T03:26:58.609Z,32.88
2024-02-29T03:29:26.953Z,32.30
2024-02-29T03:31:56.418Z,36.38
2024-02-29T03:34:26.348Z,32.35
2024-02-29T03:36:54.541Z,32.03
2024-02-29T03:39:23.106Z,33.40
2024-02-29T03:41:51.197Z,34.92
2024-02-29T03:44:19.416Z,32.28
2024-02-29T03:46:47.367Z,34.30
2024-02-29T03:49:17.034Z,33.23
2024-02-29T03:51:45.016Z,31.55
2024-02-29T03:54:13.312Z,31.50
2024-02-29T03:56:41.339Z,28.38
2024-02-29T03:59:09.251Z,33.65
2024-02-29T04:01:40.170Z,29.87
2024-02-29T04:04:08.524Z,31.17
2024-02-29T04:06:37.961Z,30.88
2024-02-29T04:09:05.946Z,27.75
2024-02-29T04:11:34.133Z,28.33
2024-02-29T04:14:02.371Z,30.07
2024-02-29T04:16:39.446Z,27.30
2024-02-29T04:19:09.347Z,30.90
2024-02-29T04:21:39.080Z,28.92
2024-02-29T04:24:08.196Z,28.73
2024-02-29T04:26:38.708Z,31.47
2024-02-29T04:29:06.582Z,32.65
2024-02-29T04:31:34.769Z,29.88
2024-02-29T04:34:03.791Z,33.53
2024-02-29T04:36:32.940Z,29.08
2024-02-29T04:39:02.160Z,31.37
2024-02-29T04:41:30.207Z,29.08
2024-02-29T04:43:58.192Z,34.60
2024-02-29T04:46:26.134Z,34.45
2024-02-29T04:48:54.345Z,35.28
2024-02-29T04:51:22.438Z,33.37
2024-02-29T04:53:50.713Z,34.78
2024-02-29T04:56:21.096Z,35.25
2024-02-29T04:58:50.787Z,38.20
2024-02-29T05:01:19.596Z,33.50
2024-02-29T05:03:48.233Z,34.27
2024-02-29T05:06:17.733Z,38.95
2024-02-29T05:08:45.771Z,38.42
2024-02-29T05:11:20.034Z,37.50
2024-02-29T05:13:50.654Z,33.60
2024-02-29T05:16:20.314Z,35.20
2024-02-29T05:18:48.387Z,38.00
2024-02-29T05:21:17.576Z,37.58
2024-02-29T05:23:46.052Z,38.50
2024-02-29T05:26:14.541Z,36.00
2024-02-29T05:28:42.590Z,35.27
2024-02-29T05:31:11.848Z,36.53
2024-02-29T05:33:42.466Z,37.08
2024-02-29T05:36:10.756Z,34.72
2024-02-29T05:38:41.656Z,34.47
2024-02-29T05:41:09.831Z,36.40
2024-02-29T05:43:38.431Z,35.67
2024-02-29T05:46:07.022Z,38.60
2024-02-29T05:48:38.943Z,35.55
2024-02-29T05:51:08.444Z,38.40
2024-02-29T05:53:36.627Z,34.97
2024-02-29T05:56:05.496Z,33.28
2024-02-29T05:58:33.713Z,34.08
2024-02-29T06:01:01.890Z,36.53
2024-02-29T06:03:30.606Z,38.40
2024-02-29T06:06:01.081Z,38.77
2024-02-29T06:08:31.233Z,33.90
2024-02-29T06:10:59.653Z,32.30
2024-02-29T06:13:29.951Z,36.22
2024-02-29T06:15:58.187Z,37.15
2024-02-29T06:18:26.231Z,34.67
2024-02-29T06:20:54.595Z,37.40
2024-02-29T06:23:24.130Z,38.15
2024-02-29T06:25:54.814Z,36.08
2024-02-29T06:28:24.518Z,35.55
2024-02-29T06:30:55.305Z,36.03
2024-02-29T06:33:25.626Z,35.92
2024-02-29T06:35:54.075Z,35.17
2024-02-29T06:38:24.629Z,32.05
2024-02-29T06:40:52.724Z,32.42
2024-02-29T06:43:21.053Z,32.43
2024-02-29T06:45:49.452Z,31.63
2024-02-29T06:48:20.837Z,33.83
2024-02-29T06:50:51.664Z,31.23
2024-02-29T06:53:20.373Z,32.63
2024-02-29T06:55:49.935Z,30.07
2024-02-29T06:58:18.525Z,31.95
2024-02-29T07:00:46.837Z,31.48
2024-02-29T07:03:14.809Z,30.55
2024-02-29T07:05:42.921Z,33.75
2024-02-29T07:08:14.735Z,30.60
2024-02-29T07:10:43.912Z,31.27
2024-02-29T07:13:14.403Z,32.22
2024-02-29T07:15:45.340Z,31.25
2024-02-29T07:18:17.440Z,34.40
2024-02-29T07:20:45.835Z,30.50
2024-02-29T07:23:14.242Z,35.03
2024-02-29T07:25:42.836Z,30.90
2024-02-29T07:28:11.682Z,33.40
2024-02-29T07:30:47.885Z,33.20
2024-02-29T07:33:16.175Z,30.37
2024-02-29T07:35:45.545Z,31.48
2024-02-29T07:54:21.010Z,26.23
2024-02-29T07:57:33.315Z,24.58
2024-02-29T08:00:26.784Z,28.85
2024-02-29T08:02:56.114Z,29.02
2024-02-29T08:05:32.944Z,28.20
2024-02-29T08:08:12.765Z,27.52
2024-02-29T08:10:41.214Z,28.95
2024-02-29T08:13:09.128Z,29.88
2024-02-29T08:15:40.674Z,30.48
2024-02-29T08:18:12.500Z,34.33
2024-02-29T08:20:40.675Z,33.17
2024-02-29T08:23:08.529Z,30.45
2024-02-29T08:25:35.450Z,32.58
2024-02-29T08:28:07.858Z,33.88
2024-02-29T08:30:35.801Z,29.90
2024-02-29T08:33:05.543Z,33.97
2024-02-29T08:35:34.130Z,30.92
2024-02-29T08:38:02.026Z,33.45
2024-02-29T08:40:31.747Z,30.58
2024-02-29T08:43:00.526Z,31.03
2024-02-29T08:45:28.699Z,30.77
2024-02-29T08:47:56.708Z,25.50
2024-02-29T08:50:28.958Z,30.35
2024-02-29T08:52:57.886Z,32.17
2024-02-29T08:55:28.782Z,29.47
2024-02-29T08:57:59.828Z,31.83
2024-02-29T09:00:31.272Z,29.55
2024-02-29T09:02:59.132Z,29.80
2024-02-29T09:05:29.302Z,33.65
2024-02-29T09:08:00.115Z,29.30
2024-02-29T09:10:28.355Z,30.27
2024-02-29T09:12:56.539Z,33.25
2024-02-29T09:15:24.493Z,31.02
2024-02-29T09:17:53.662Z,29.33
2024-02-29T09:20:21.876Z,27.67
2024-02-29T09:22:51.972Z,26.98
2024-02-29T09:25:20.681Z,29.80
2024-02-29T09:27:48.829Z,30.98
2024-02-29T09:30:16.825Z,28.60
2024-02-29T09:32:45.445Z,27.87
2024-02-29T09:35:13.610Z,26.23
2024-02-29T09:37:41.751Z,28.60
2024-02-29T09:40:12.969Z,26.40
2024-02-29T09:42:41.132Z,27.13
2024-02-29T09:45:12.823Z,26.23
2024-02-29T09:47:44.951Z,27.10
2024-02-29T09:50:13.661Z,27.45
2024-02-29T09:52:41.742Z,29.33
2024-02-29T09:55:15.247Z,29.00
2024-02-29T09:57:43.676Z,28.30
2024-02-29T10:00:37.018Z,30.48
2024-02-29T10:03:06.776Z,26.80
2024-02-29T10:05:34.929Z,28.60
2024-02-29T10:08:05.867Z,29.20
2024-02-29T10:10:36.958Z,28.07
2024-02-29T10:13:07.237Z,26.75
2024-02-29T10:15:35.868Z,27.88
2024-02-29T10:18:04.458Z,26.00
2024-02-29T10:20:34.078Z,26.77
2024-02-29T10:23:01.991Z,28.03
2024-02-29T10:25:30.220Z,27.95
2024-02-29T10:28:06.398Z,28.23
2024-02-29T10:30:34.727Z,27.10
2024-02-29T10:33:03.319Z,26.00
2024-02-29T10:35:31.691Z,26.10
2024-02-29T10:37:59.812Z,26.98
2024-02-29T10:40:28.783Z,28.60
2024-02-29T10:42:57.846Z,28.58
2024-02-29T10:45:32.244Z,29.40
2024-02-29T10:48:15.691Z,27.37
2024-02-29T10:50:47.936Z,27.02
2024-02-29T10:53:23.209Z,28.85
2024-02-29T10:55:57.224Z,29.30
2024-02-29T10:58:30.814Z,31.00
2024-02-29T11:01:04.119Z,29.30
2024-02-29T11:03:33.789Z,27.40
2024-02-29T11:06:02.959Z,29.90
2024-02-29T11:08:31.153Z,29.35
2024-02-29T11:10:59.978Z,34.13
2024-02-29T11:13:32.121Z,32.83
2024-02-29T11:16:05.906Z,30.17
2024-02-29T11:18:35.120Z,31.67
2024-02-29T11:21:05.224Z,30.67
2024-02-29T11:23:45.294Z,31.40
2024-02-29T11:26:15.056Z,33.13
2024-02-29T11:28:44.432Z,29.50
2024-02-29T11:31:20.230Z,32.22
2024-02-29T11:33:52.653Z,28.90
2024-02-29T11:36:25.328Z,29.42
2024-02-29T11:38:56.691Z,32.13
2024-02-29T11:41:30.174Z,31.08
2024-02-29T11:43:58.218Z,28.85
2024-02-29T11:46:28.648Z,32.75
2024-02-29T11:48:57.948Z,30.60
2024-02-29T11:51:28.095Z,29.93
2024-02-29T11:53:56.589Z,31.08
2024-02-29T11:56:24.671Z,33.33
2024-02-29T11:58:54.765Z,29.15
2024-02-29T12:01:24.958Z,30.40
2024-02-29T12:03:55.040Z,31.70
2024-02-29T12:06:22.934Z,26.70
2024-02-29T12:08:50.914Z,28.23
2024-02-29T12:11:22.356Z,26.55
2024-02-29T12:13:50.712Z,25.48
2024-02-29T12:16:19.707Z,28.13
2024-02-29T12:18:47.967Z,26.05
2024-02-29T12:21:18.362Z,26.08
2024-02-29T12:23:48.539Z,24.73
2024-02-29T12:26:17.381Z,24.75
2024-02-29T12:28:49.380Z,24.27
2024-02-29T12:31:23.340Z,23.75
2024-02-29T12:33:55.300Z,22.65
2024-02-29T12:45:42.489Z,20.08
2024-02-29T12:49:06.661Z,17.67
2024-02-29T12:51:35.099Z,17.73
2024-02-29T12:54:03.998Z,18.00
2024-02-29T12:56:32.972Z,16.83
2024-02-29T12:59:03.797Z,17.30
2024-02-29T13:01:38.987Z,19.63
2024-02-29T13:04:07.596Z,18.52
2024-02-29T13:06:36.775Z,16.00
2024-02-29T13:09:07.022Z,16.80
2024-02-29T13:11:35.414Z,16.48
2024-02-29T13:14:04.521Z,15.38
2024-02-29T13:16:36.644Z,16.83
2024-02-29T13:19:05.114Z,15.93
2024-02-29T13:21:33.614Z,17.60
2024-02-29T13:24:02.005Z,17.67
2024-02-29T13:26:30.086Z,15.05
2024-02-29T13:28:58.734Z,15.23
2024-02-29T13:31:45.081Z,18.65
2024-02-29T13:34:24.836Z,14.90
2024-02-29T13:37:02.285Z,15.43
2024-02-29T13:39:40.564Z,14.80
2024-02-29T13:42:14.214Z,14.95
2024-02-29T13:44:48.211Z,16.13
2024-02-29T13:47:30.950Z,13.67
2024-02-29T13:50:11.564Z,12.93
2024-02-29T13:52:46.232Z,13.10
2024-02-29T13:55:14.878Z,14.10
2024-02-29T13:57:44.262Z,13.35
2024-02-29T14:00:13.470Z,13.23
2024-02-29T14:02:49.883Z,13.15
2024-02-29T14:05:22.721Z,12.52
2024-02-29T14:07:54.013Z,12.38
2024-02-29T14:10:22.910Z,13.40
2024-02-29T14:12:50.922Z,13.70
2024-02-29T14:15:23.433Z,12.25
2024-02-29T14:17:55.283Z,11.50
2024-02-29T14:20:27.319Z,11.93
2024-02-29T14:22:55.397Z,11.05
2024-02-29T14:25:24.991Z,11.27
2024-02-29T14:27:54.445Z,11.68
2024-02-29T14:30:24.117Z,11.00
2024-02-29T14:32:52.293Z,11.63
2024-02-29T14:35:26.309Z,10.32
2024-02-29T14:37:59.312Z,12.00
2024-02-29T14:40:28.530Z,11.48
2024-02-29T14:42:57.432Z,12.80
2024-02-29T14:45:26.008Z,10.63
2024-02-29T14:47:54.627Z,11.18
2024-02-29T14:50:23.038Z,11.10
2024-02-29T14:52:52.021Z,10.73
2024-02-29T14:55:21.779Z,10.90
2024-02-29T14:57:50.122Z,10.65
2024-02-29T15:00:25.048Z,8.90
2024-02-29T15:02:53.135Z,10.33
2024-02-29T15:05:24.457Z,10.38
2024-02-29T15:13:37.690Z,7.47
2024-02-29T15:21:22.190Z,5.87
2024-02-29T15:23:50.968Z,6.32
2024-02-29T15:26:18.950Z,7.30
2024-02-29T15:28:49.970Z,6.53
2024-02-29T15:31:18.428Z,5.63
2024-02-29T15:33:49.309Z,6.37
2024-02-29T15:36:19.846Z,7.00
2024-02-29T15:38:48.496Z,6.22
2024-02-29T15:41:17.296Z,6.13
2024-02-29T15:43:50.884Z,5.95
2024-02-29T15:46:19.652Z,6.57
2024-02-29T15:48:48.016Z,7.40
2024-02-29T15:51:16.350Z,6.95
2024-02-29T15:53:47.376Z,7.18
2024-02-29T15:56:16.414Z,8.32
2024-02-29T15:58:46.328Z,8.47
2024-02-29T16:01:14.889Z,7.43
2024-02-29T16:03:47.184Z,7.78
2024-02-29T16:06:16.772Z,7.40
2024-02-29T16:08:48.242Z,7.82
2024-02-29T16:11:21.368Z,7.27
2024-02-29T16:13:51.033Z,8.02
2024-02-29T16:16:20.651Z,8.10
2024-02-29T16:18:49.630Z,9.23
2024-02-29T16:21:19.017Z,9.52
2024-02-29T16:23:50.466Z,9.67
2024-02-29T16:26:21.533Z,9.98
2024-02-29T16:28:53.684Z,8.68
2024-02-29T16:31:31.413Z,8.48
2024-02-29T16:34:01.551Z,8.20
2024-02-29T16:36:31.013Z,9.87
2024-02-29T16:39:02.070Z,9.75
2024-02-29T16:41:35.345Z,9.20
2024-02-29T16:44:21.999Z,11.00
2024-02-29T16:47:00.126Z,11.25
2024-02-29T16:49:32.338Z,10.13
2024-02-29T16:52:01.474Z,10.43
2024-02-29T16:54:32.940Z,12.93
2024-02-29T16:57:02.247Z,11.73
2024-02-29T16:59:30.994Z,11.45
2024-02-29T17:02:00.593Z,12.93
2024-02-29T17:04:39.331Z,12.70
2024-02-29T17:07:07.652Z,12.13
2024-02-29T17:09:39.902Z,12.25
2024-02-29T17:12:09.793Z,13.10
2024-02-29T17:14:37.652Z,12.97
2024-02-29T17:17:07.157Z,12.60
2024-02-29T17:19:35.454Z,12.70
2024-02-29T17:22:04.897Z,12.82
2024-02-29T17:24:40.221Z,13.30
2024-02-29T17:27:08.597Z,14.77
2024-02-29T17:29:38.660Z,11.98
2024-02-29T17:32:07.709Z,12.88
2024-02-29T17:34:40.464Z,13.20
2024-02-29T17:37:11.704Z,13.27
2024-02-29T17:39:48.126Z,11.47
2024-02-29T17:42:22.419Z,13.93
2024-02-29T17:44:53.782Z,13.85
2024-02-29T17:47:25.166Z,14.95
2024-02-29T17:49:57.040Z,12.77
2024-02-29T17:52:26.407Z,12.17
2024-02-29T17:54:59.363Z,13.50
2024-02-29T17:57:53.024Z,14.52
2024-02-29T18:00:22.563Z,16.48
2024-02-29T18:02:50.967Z,14.93
2024-02-29T18:05:19.145Z,14.23
2024-02-29T18:07:58.964Z,14.27
2024-02-29T18:10:43.966Z,18.00
2024-02-29T18:13:16.672Z,14.00
2024-02-29T18:15:55.513Z,13.15
2024-02-29T18:18:36.316Z,14.47
2024-02-29T18:21:11.210Z,13.10
2024-02-29T18:23:41.168Z,13.63
2024-02-29T18:26:16.439Z,13.32
2024-02-29T18:28:46.687Z,12.73
2024-02-29T18:31:15.114Z,13.50
2024-02-29T18:33:45.897Z,15.20
2024-02-29T18:36:14.850Z,14.68
2024-02-29T18:38:48.434Z,15.63
2024-02-29T18:41:19.040Z,16.05
2024-02-29T18:43:47.688Z,15.57
2024-02-29T18:46:17.619Z,15.13
2024-02-29T18:48:46.421Z,17.08
2024-02-29T18:51:14.495Z,15.43
2024-02-29T18:53:43.063Z,14.75
2024-02-29T18:56:11.380Z,17.87
2024-02-29T18:58:43.152Z,16.40
2024-02-29T19:01:11.265Z,18.73
2024-02-29T19:03:39.890Z,18.13
2024-02-29T19:06:08.819Z,16.77
2024-02-29T19:08:40.259Z,17.20
2024-02-29T19:11:08.429Z,16.90
2024-02-29T19:13:37.271Z,18.10
2024-02-29T19:16:08.629Z,16.52
2024-02-29T19:18:37.529Z,19.08
2024-02-29T19:21:05.687Z,19.13
2024-02-29T19:23:34.026Z,18.48
2024-02-29T19:26:03.232Z,18.23
2024-02-29T19:28:34.214Z,21.50
2024-02-29T19:31:05.663Z,23.15
2024-02-29T19:33:36.507Z,22.87
2024-02-29T19:36:15.901Z,23.38
2024-02-29T19:38:51.338Z,22.48
2024-02-29T19:41:19.339Z,26.05
2024-02-29T19:43:48.252Z,24.35
2024-02-29T19:46:17.438Z,24.03
2024-02-29T19:48:47.618Z,24.88
2024-02-29T19:51:17.766Z,26.40
2024-02-29T19:53:56.845Z,23.75
2024-02-29T19:56:29.573Z,24.40
2024-02-29T19:59:00.005Z,26.93
2024-02-29T20:01:28.138Z,26.35
2024-02-29T20:03:58.325Z,25.85
2024-02-29T20:06:26.894Z,27.55
2024-02-29T20:08:54.902Z,24.48
2024-02-29T20:11:24.194Z,26.43
2024-02-29T20:13:58.712Z,25.45
2024-02-29T20:16:30.351Z,26.25
2024-02-29T20:19:00.512Z,24.70
2024-02-29T20:21:29.382Z,26.05
2024-02-29T20:23:58.196Z,28.90
2024-02-29T20:26:27.753Z,24.58
2024-02-29T20:28:56.072Z,27.60
2024-02-29T20:31:24.621Z,26.92
2024-02-29T20:33:56.998Z,25.35
2024-02-29T20:36:29.676Z,23.10
2024-02-29T20:38:58.073Z,25.67
2024-02-29T20:41:29.324Z,27.17
2024-02-29T20:43:59.638Z,26.35
2024-02-29T20:46:30.525Z,25.70
2024-02-29T20:49:00.152Z,25.87
2024-02-29T20:51:32.024Z,26.33
2024-02-29T20:54:01.124Z,23.67
2024-02-29T20:56:32.410Z,24.33
2024-02-29T20:59:05.245Z,24.30
2024-02-29T21:01:34.066Z,23.73
2024-02-29T21:04:02.603Z,24.52
2024-02-29T21:06:33.320Z,23.13
2024-02-29T21:09:01.731Z,22.92
2024-02-29T21:11:29.846Z,25.67
2024-02-29T21:13:58.447Z,22.63
2024-02-29T21:16:26.950Z,20.67
2024-02-29T21:18:55.195Z,21.90
2024-02-29T21:21:25.764Z,22.00
2024-02-29T21:23:56.164Z,19.67
2024-02-29T21:26:27.636Z,20.83
2024-02-29T21:28:56.012Z,21.13
2024-02-29T21:31:25.005Z,21.02
2024-02-29T21:33:53.718Z,21.65
2024-02-29T21:36:21.929Z,19.65
2024-02-29T21:38:49.888Z,20.23
2024-02-29T21:41:23.024Z,27.35
2024-02-29T21:43:51.894Z,19.52
2024-02-29T21:46:20.186Z,20.23
2024-02-29T21:48:49.890Z,19.05
2024-02-29T21:51:18.997Z,19.27
2024-02-29T21:53:48.003Z,18.13
2024-02-29T21:56:16.567Z,19.33
2024-02-29T21:58:46.685Z,17.50
2024-02-29T22:01:14.712Z,20.17
2024-02-29T22:03:43.217Z,18.37
2024-02-29T22:06:11.608Z,17.95
2024-02-29T22:08:39.984Z,17.15
2024-02-29T22:11:10.150Z,18.33
2024-02-29T22:13:38.376Z,16.25
2024-02-29T22:16:09.404Z,19.33
2024-02-29T22:18:38.169Z,18.42
2024-02-29T22:21:06.675Z,18.65
2024-02-29T22:23:35.420Z,18.77
2024-02-29T22:26:03.549Z,17.40
2024-02-29T22:28:32.921Z,15.23
2024-02-29T22:31:01.111Z,17.73
2024-02-29T22:33:31.211Z,16.05
2024-02-29T22:35:59.712Z,14.50
2024-02-29T22:38:28.341Z,14.70
2024-02-29T22:40:56.646Z,12.90
2024-02-29T22:43:25.142Z,15.18
2024-02-29T22:45:53.594Z,14.35
2024-02-29T22:48:21.747Z,15.75
2024-02-29T22:50:51.372Z,14.20
2024-02-29T22:53:19.737Z,13.37
2024-02-29T22:55:51.465Z,14.00
2024-02-29T22:58:21.029Z,14.80
2024-02-29T23:03:22.423Z,16.30
2024-02-29T23:05:52.205Z,15.07
2024-02-29T23:08:20.995Z,15.52
2024-02-29T23:10:49.528Z,14.48
2024-02-29T23:13:17.925Z,15.18
2024-02-29T23:15:46.501Z,16.17
2024-02-29T23:18:15.048Z,14.37
2024-02-29T23:20:43.746Z,14.20
2024-02-29T23:23:13.438Z,14.95
2024-02-29T23:25:41.353Z,13.43
2024-02-29T23:28:09.753Z,15.70
2024-02-29T23:30:38.281Z,14.57
2024-02-29T23:33:06.584Z,14.05
2024-02-29T23:35:34.665Z,13.68
2024-02-29T23:38:02.889Z,15.23
2024-02-29T23:40:33.040Z,14.50
2024-02-29T23:43:01.176Z,13.63
2024-02-29T23:45:29.539Z,13.32
2024-02-29T23:47:58.049Z,14.82
2024-02-29T23:50:26.794Z,14.88
2024-02-29T23:52:54.614Z,14.95
2024-02-29T23:55:27.308Z,15.77
2024-02-29T23:57:57.580Z,15.77
